Time,TemperatureF,DewpointF,PressureIn,WindDirection,WindDirectionDegrees,WindSpeedMPH,WindSpeedGustMPH,Humidity,HourlyPrecipIn,Conditions,Clouds,dailyrainin,SoftwareType,DateUTC
2013-04-05 00:42:00,52.0,48.0,29.85,North,0,0.0,-999.0,87,-99.99,,,-99.99,,2013-04-05 07:42:00,
2013-04-05 00:52:00,52.0,48.0,29.85,North,0,0.0,-999.0,87,-99.99,,,-99.99,,2013-04-05 07:52:00,
2013-04-05 01:12:00,52.0,48.0,29.86,North,0,0.0,-999.0,87,-99.99,,,-99.99,,2013-04-05 08:12:00,
2013-04-05 01:22:00,52.0,48.0,29.86,North,0,0.0,-999.0,87,-99.99,,,-99.99,,2013-04-05 08:22:00,
2013-04-05 01:32:00,52.0,48.0,29.86,North,0,0.0,-999.0,87,-99.99,,,-99.99,,2013-04-05 08:32:00,
2013-04-05 01:42:00,52.0,48.0,29.86,North,0,0.0,-999.0,87,-99.99,,,-99.99,,2013-04-05 08:42:00,
2013-04-05 01:52:00,52.0,48.0,29.86,North,0,0.0,-999.0,87,-99.99,,,-99.99,,2013-04-05 08:52:00,
2013-04-05 02:12:00,52.0,48.0,29.86,North,0,0.0,-999.0,87,-99.99,,,-99.99,,2013-04-05 09:12:00,
2013-04-05 02:22:00,52.0,48.0,29.86,North,0,0.0,-999.0,87,-99.99,,,-99.99,,2013-04-05 09:22:00,
2013-04-05 02:33:00,52.0,48.0,29.86,North,0,0.0,-999.0,87,-99.99,,,-99.99,,2013-04-05 09:33:00,
2013-04-05 02:42:00,50.0,48.0,29.86,North,0,0.0,-999.0,93,-99.99,,,-99.99,,2013-04-05 09:42:00,
2013-04-05 02:52:00,50.0,48.0,29.86,North,0,0.0,-999.0,93,-99.99,,,-99.99,,2013-04-05 09:52:00,
2013-04-05 03:12:00,50.0,48.0,29.85,North,0,0.0,-999.0,93,-99.99,,,-99.99,,2013-04-05 10:12:00,
2013-04-05 03:23:00,50.0,48.0,29.85,North,0,0.0,-999.0,93,-99.99,,,-99.99,,2013-04-05 10:23:00,
2013-04-05 03:32:00,50.0,48.0,29.85,North,0,0.0,-999.0,93,-99.99,,,-99.99,,2013-04-05 10:32:00,
2013-04-05 03:42:00,50.0,48.0,29.85,North,0,0.0,-999.0,93,-99.99,,,-99.99,,2013-04-05 10:42:00,
2013-04-05 03:52:00,50.0,48.0,29.85,North,0,0.0,-999.0,93,-99.99,,,-99.99,,2013-04-05 10:52:00,
2013-04-05 04:12:00,50.0,48.0,29.85,North,0,0.0,-999.0,93,-99.99,,,-99.99,,2013-04-05 11:12:00,
2013-04-05 04:22:00,50.0,48.0,29.85,North,0,0.0,-999.0,93,-99.99,,,-99.99,,2013-04-05 11:22:00,
2013-04-05 04:32:00,50.0,48.0,29.85,North,0,0.0,-999.0,93,-99.99,,,-99.99,,2013-04-05 11:32:00,
2013-04-05 04:42:00,48.0,48.0,29.85,North,0,0.0,-999.0,100,-99.99,,,-99.99,,2013-04-05 11:42:00,
2013-04-05 04:52:00,48.0,48.0,29.85,North,0,0.0,-999.0,100,-99.99,,,-99.99,,2013-04-05 11:52:00,
2013-04-05 05:12:00,48.0,48.0,29.86,North,0,0.0,-999.0,100,-99.99,,,-99.99,,2013-04-05 12:12:00,
2013-04-05 05:22:00,48.0,48.0,29.86,North,0,0.0,-999.0,100,-99.99,,,-99.99,,2013-04-05 12:22:00,
2013-04-05 05:32:00,48.0,48.0,29.86,North,0,0.0,-999.0,100,-99.99,,,-99.99,,2013-04-05 12:32:00,
2013-04-05 05:42:00,50.0,48.0,29.87,North,0,0.0,-999.0,93,-99.99,,,-99.99,,2013-04-05 12:42:00,
2013-04-05 05:52:00,50.0,48.0,29.87,North,0,0.0,-999.0,93,-99.99,,,-99.99,,2013-04-05 12:52:00,
2013-04-05 06:12:00,50.0,48.0,29.87,North,0,0.0,-999.0,93,0.01,,,-99.99,,2013-04-05 13:12:00,
2013-04-05 06:22:00,50.0,48.0,29.87,North,0,0.0,-999.0,93,0.01,,,-99.99,,2013-04-05 13:22:00,
2013-04-05 06:32:00,50.0,48.0,29.87,North,0,0.0,-999.0,93,0.01,,,-99.99,,2013-04-05 13:32:00,
2013-04-05 06:42:00,48.0,46.0,29.87,North,0,0.0,-999.0,93,0.01,,,-99.99,,2013-04-05 13:42:00,
2013-04-05 06:52:00,48.0,46.0,29.87,North,0,0.0,-999.0,93,0.01,,,-99.99,,2013-04-05 13:52:00,
2013-04-05 07:12:00,48.0,46.0,29.88,North,0,0.0,-999.0,93,-99.99,,,-99.99,,2013-04-05 14:12:00,
2013-04-05 07:22:00,48.0,46.0,29.88,North,0,0.0,-999.0,93,-99.99,,,-99.99,,2013-04-05 14:22:00,
2013-04-05 07:36:00,48.0,46.0,29.88,North,0,0.0,-999.0,93,-99.99,,,-99.99,,2013-04-05 14:36:00,
2013-04-05 07:42:00,48.0,48.0,29.88,North,0,0.0,-999.0,100,-99.99,,,-99.99,,2013-04-05 14:42:00,
2013-04-05 07:52:00,48.0,48.0,29.88,North,0,0.0,-999.0,100,-99.99,,,-99.99,,2013-04-05 14:52:00,
2013-04-05 08:12:00,50.0,48.0,29.89,North,0,0.0,-999.0,93,-99.99,,,-99.99,,2013-04-05 15:12:00,
2013-04-05 08:23:00,50.0,48.0,29.89,North,0,0.0,-999.0,93,-99.99,,,-99.99,,2013-04-05 15:23:00,
2013-04-05 08:33:00,50.0,48.0,29.89,North,0,0.0,-999.0,93,-99.99,,,-99.99,,2013-04-05 15:33:00,
2013-04-05 08:42:00,52.0,48.0,29.89,SSW,210,6.0,-999.0,87,-99.99,,,-99.99,,2013-04-05 15:42:00,
2013-04-05 08:53:00,52.0,48.0,29.89,SSW,210,6.0,-999.0,87,-99.99,,,-99.99,,2013-04-05 15:53:00,
2013-04-05 09:13:00,52.0,48.0,29.90,North,0,0.0,-999.0,87,-99.99,,,-99.99,,2013-04-05 16:13:00,
2013-04-05 09:23:00,52.0,48.0,29.90,North,0,0.0,-999.0,87,-99.99,,,-99.99,,2013-04-05 16:23:00,
2013-04-05 09:32:00,52.0,48.0,29.90,North,0,0.0,-999.0,87,-99.99,,,-99.99,,2013-04-05 16:32:00,
2013-04-05 09:42:00,54.0,46.0,29.90,North,0,0.0,-999.0,76,-99.99,,,-99.99,,2013-04-05 16:42:00,
2013-04-05 09:52:00,54.0,46.0,29.90,North,0,0.0,-999.0,76,-99.99,,,-99.99,,2013-04-05 16:52:00,
2013-04-05 10:12:00,55.0,48.0,29.91,North,0,0.0,-999.0,76,-99.99,,,-99.99,,2013-04-05 17:12:00,
2013-04-05 10:23:00,55.0,48.0,29.91,North,0,0.0,-999.0,76,-99.99,,,-99.99,,2013-04-05 17:23:00,
2013-04-05 10:32:00,55.0,48.0,29.91,North,0,0.0,-999.0,76,-99.99,,,-99.99,,2013-04-05 17:32:00,
2013-04-05 10:45:00,55.0,50.0,29.92,North,0,0.0,-999.0,82,-99.99,,,-99.99,,2013-04-05 17:45:00,
2013-04-05 10:52:00,55.0,50.0,29.92,North,0,0.0,-999.0,82,-99.99,,,-99.99,,2013-04-05 17:52:00,
2013-04-05 11:12:00,55.0,50.0,29.92,WNW,300,8.0,-999.0,82,-99.99,,,-99.99,,2013-04-05 18:12:00,
2013-04-05 11:22:00,55.0,50.0,29.92,WNW,300,8.0,-999.0,82,-99.99,,,-99.99,,2013-04-05 18:22:00,
2013-04-05 11:32:00,55.0,50.0,29.92,WNW,300,8.0,-999.0,82,-99.99,,,-99.99,,2013-04-05 18:32:00,
2013-04-05 11:42:00,59.0,52.0,29.92,NW,320,8.0,-999.0,77,-99.99,,,-99.99,,2013-04-05 18:42:00,
2013-04-05 11:52:00,59.0,52.0,29.92,NW,320,8.0,-999.0,77,-99.99,,,-99.99,,2013-04-05 18:52:00,
2013-04-05 12:13:00,57.0,50.0,29.93,WNW,300,6.0,-999.0,76,-99.99,,,-99.99,,2013-04-05 19:13:00,
2013-04-05 12:22:00,57.0,50.0,29.93,WNW,300,6.0,-999.0,76,-99.99,,,-99.99,,2013-04-05 19:22:00,
2013-04-05 12:32:00,57.0,50.0,29.93,WNW,300,6.0,-999.0,76,-99.99,,,-99.99,,2013-04-05 19:32:00,
2013-04-05 12:42:00,57.0,50.0,29.93,WNW,300,12.0,17.0,76,-99.99,,,-99.99,,2013-04-05 19:42:00,
2013-04-05 12:52:00,57.0,50.0,29.93,WNW,300,12.0,17.0,76,-99.99,,,-99.99,,2013-04-05 19:52:00,
2013-04-05 13:11:00,59.0,50.0,29.92,NW,310,7.0,-999.0,72,-99.99,,,-99.99,,2013-04-05 20:11:00,
2013-04-05 13:22:00,59.0,50.0,29.92,NW,310,7.0,-999.0,72,-99.99,,,-99.99,,2013-04-05 20:22:00,
2013-04-05 13:32:00,59.0,50.0,29.92,NW,310,7.0,-999.0,72,-99.99,,,-99.99,,2013-04-05 20:32:00,
2013-04-05 14:12:00,57.0,50.0,29.93,NW,310,3.0,-999.0,76,-99.99,,,-99.99,,2013-04-05 21:12:00,
2013-04-05 14:23:00,57.0,50.0,29.93,NW,310,3.0,-999.0,76,-99.99,,,-99.99,,2013-04-05 21:23:00,
2013-04-05 14:33:00,57.0,50.0,29.93,NW,310,3.0,-999.0,76,-99.99,,,-99.99,,2013-04-05 21:33:00,
2013-04-05 14:42:00,59.0,48.0,29.93,WNW,290,7.0,-999.0,67,-99.99,,,-99.99,,2013-04-05 21:42:00,
2013-04-05 14:53:00,59.0,48.0,29.93,WNW,290,7.0,-999.0,67,-99.99,,,-99.99,,2013-04-05 21:53:00,
2013-04-05 15:13:00,57.0,48.0,29.93,NW,310,8.0,-999.0,71,0.01,,,-99.99,,2013-04-05 22:13:00,
2013-04-05 15:23:00,57.0,48.0,29.93,NW,310,8.0,-999.0,71,0.01,,,-99.99,,2013-04-05 22:23:00,
2013-04-05 15:33:00,57.0,48.0,29.93,NW,310,8.0,-999.0,71,0.01,,,-99.99,,2013-04-05 22:33:00,
2013-04-05 15:42:00,57.0,48.0,29.93,NNW,340,3.0,-999.0,71,0.01,,,-99.99,,2013-04-05 22:42:00,
2013-04-05 15:52:00,57.0,48.0,29.93,NNW,340,3.0,-999.0,71,0.01,,,-99.99,,2013-04-05 22:52:00,
2013-04-05 16:12:00,57.0,46.0,29.94,North,0,0.0,-999.0,67,-99.99,,,-99.99,,2013-04-05 23:12:00,
2013-04-05 16:22:00,57.0,46.0,29.94,North,0,0.0,-999.0,67,-99.99,,,-99.99,,2013-04-05 23:22:00,
2013-04-05 16:32:00,57.0,46.0,29.94,North,0,0.0,-999.0,67,-99.99,,,-99.99,,2013-04-05 23:32:00,
2013-04-05 16:42:00,55.0,48.0,29.94,North,0,0.0,-999.0,76,-99.99,,,-99.99,,2013-04-05 23:42:00,
2013-04-05 16:52:00,55.0,48.0,29.94,North,0,0.0,-999.0,76,-99.99,,,-99.99,,2013-04-05 23:52:00,
2013-04-05 17:12:00,54.0,50.0,29.94,NNW,340,3.0,-999.0,87,0.01,,,-99.99,,2013-04-06 00:12:00,
2013-04-05 17:22:00,54.0,50.0,29.94,NNW,340,3.0,-999.0,87,0.01,,,-99.99,,2013-04-06 00:22:00,
2013-04-05 17:32:00,54.0,50.0,29.94,NNW,340,3.0,-999.0,87,0.01,,,-99.99,,2013-04-06 00:32:00,
2013-04-05 17:42:00,54.0,50.0,29.93,NNW,330,5.0,-999.0,87,0.01,,,-99.99,,2013-04-06 00:42:00,
2013-04-05 17:52:00,54.0,50.0,29.93,NNW,330,5.0,-999.0,87,0.01,,,-99.99,,2013-04-06 00:52:00,
2013-04-05 18:12:00,54.0,48.0,29.92,NW,310,6.0,-999.0,81,-99.99,,,-99.99,,2013-04-06 01:12:00,
2013-04-05 18:22:00,54.0,48.0,29.92,NW,310,6.0,-999.0,81,-99.99,,,-99.99,,2013-04-06 01:22:00,
2013-04-05 18:32:00,54.0,48.0,29.92,NW,310,6.0,-999.0,81,-99.99,,,-99.99,,2013-04-06 01:32:00,
2013-04-05 18:42:00,54.0,48.0,29.92,NW,320,3.0,-999.0,81,-99.99,,,-99.99,,2013-04-06 01:42:00,
2013-04-05 18:52:00,54.0,48.0,29.92,NW,320,3.0,-999.0,81,-99.99,,,-99.99,,2013-04-06 01:52:00,
2013-04-05 19:12:00,52.0,48.0,29.92,WNW,300,7.0,-999.0,87,-99.99,,,-99.99,,2013-04-06 02:12:00,
2013-04-05 19:22:00,52.0,48.0,29.92,WNW,300,7.0,-999.0,87,-99.99,,,-99.99,,2013-04-06 02:22:00,
2013-04-05 19:32:00,52.0,48.0,29.92,WNW,300,7.0,-999.0,87,-99.99,,,-99.99,,2013-04-06 02:32:00,
2013-04-05 19:52:00,52.0,46.0,29.91,NW,320,6.0,-999.0,81,-99.99,,,-99.99,,2013-04-06 02:52:00,
2013-04-05 20:12:00,52.0,46.0,29.89,NW,320,3.0,-999.0,81,-99.99,,,-99.99,,2013-04-06 03:12:00,
2013-04-05 20:22:00,52.0,46.0,29.89,NW,320,3.0,-999.0,81,-99.99,,,-99.99,,2013-04-06 03:22:00,
2013-04-05 20:33:00,52.0,46.0,29.89,NW,320,3.0,-999.0,81,-99.99,,,-99.99,,2013-04-06 03:33:00,
2013-04-05 20:42:00,50.0,46.0,29.89,WNW,300,5.0,-999.0,87,-99.99,,,-99.99,,2013-04-06 03:42:00,
2013-04-05 20:53:00,50.0,46.0,29.89,WNW,300,5.0,-999.0,87,-99.99,,,-99.99,,2013-04-06 03:53:00,
2013-04-05 21:13:00,50.0,46.0,29.89,North,0,0.0,-999.0,87,-99.99,,,-99.99,,2013-04-06 04:13:00,
2013-04-05 21:23:00,50.0,46.0,29.89,North,0,0.0,-999.0,87,-99.99,,,-99.99,,2013-04-06 04:23:00,
2013-04-05 21:32:00,50.0,46.0,29.89,North,0,0.0,-999.0,87,-99.99,,,-99.99,,2013-04-06 04:32:00,
2013-04-05 21:42:00,50.0,46.0,29.89,North,0,0.0,-999.0,87,-99.99,,,-99.99,,2013-04-06 04:42:00,
2013-04-05 21:52:00,50.0,46.0,29.89,North,0,0.0,-999.0,87,-99.99,,,-99.99,,2013-04-06 04:52:00,
2013-04-05 22:12:00,50.0,48.0,29.90,North,0,0.0,-999.0,93,-99.99,,,-99.99,,2013-04-06 05:12:00,
2013-04-05 22:22:00,50.0,48.0,29.90,North,0,0.0,-999.0,93,-99.99,,,-99.99,,2013-04-06 05:22:00,
2013-04-05 22:32:00,50.0,48.0,29.90,North,0,0.0,-999.0,93,-99.99,,,-99.99,,2013-04-06 05:32:00,
2013-04-05 22:42:00,48.0,48.0,29.89,North,0,0.0,-999.0,100,-99.99,,,-99.99,,2013-04-06 05:42:00,
2013-04-05 22:51:00,48.0,48.0,29.89,North,0,0.0,-999.0,100,-99.99,,,-99.99,,2013-04-06 05:51:00,
2013-04-05 23:12:00,48.0,46.0,29.89,North,0,0.0,-999.0,93,-99.99,,,-99.99,,2013-04-06 06:12:00,
2013-04-05 23:22:00,48.0,46.0,29.89,North,0,0.0,-999.0,93,-99.99,,,-99.99,,2013-04-06 06:22:00,
2013-04-05 23:32:00,48.0,46.0,29.89,North,0,0.0,-999.0,93,-99.99,,,-99.99,,2013-04-06 06:32:00,
2013-04-05 23:42:00,48.0,48.0,29.89,North,0,0.0,-999.0,100,-99.99,,,-99.99,,2013-04-06 06:42:00,
2013-04-05 23:52:00,48.0,48.0,29.89,North,0,0.0,-999.0,100,-99.99,,,-99.99,,2013-04-06 06:52:00,